sensor_id;sensor_type;location;lat;lon;timestamp;pressure;altitude;pressure_sealevel;temperature;humidity
1472;BME280;963;42.644;23.336;2022-08-19T00:01:44;93922.31;;;25.22;50.57
1472;BME280;963;42.644;23.336;2022-08-19T00:04:12;93927.44;;;25.11;50.63
1472;BME280;963;42.644;23.336;2022-08-19T00:06:40;93931.00;;;25.17;50.06
1472;BME280;963;42.644;23.336;2022-08-19T00:09:09;93933.47;;;25.06;50.26
1472;BME280;963;42.644;23.336;2022-08-19T00:11:35;93933.47;;;25.06;50.48
1472;BME280;963;42.644;23.336;2022-08-19T00:14:01;93932.53;;;25.09;50.85
1472;BME280;963;42.644;23.336;2022-08-19T00:16:27;93923.56;;;25.12;50.54
1472;BME280;963;42.644;23.336;2022-08-19T00:18:54;93931.63;;;25.12;50.28
1472;BME280;963;42.644;23.336;2022-08-19T00:21:20;93940.28;;;25.16;50.64
1472;BME280;963;42.644;23.336;2022-08-19T00:23:46;93945.09;;;25.12;50.48
1472;BME280;963;42.644;23.336;2022-08-19T00:26:12;93944.22;;;25.06;50.97
1472;BME280;963;42.644;23.336;2022-08-19T00:28:37;93947.50;;;25.10;51.45
1472;BME280;963;42.644;23.336;2022-08-19T00:31:04;93938.25;;;25.02;51.34
1472;BME280;963;42.644;23.336;2022-08-19T00:33:31;93944.84;;;25.01;51.42
1472;BME280;963;42.644;23.336;2022-08-19T00:36:00;93933.91;;;24.96;51.27
1472;BME280;963;42.644;23.336;2022-08-19T00:38:26;93944.38;;;25.03;50.92
1472;BME280;963;42.644;23.336;2022-08-19T00:40:53;93954.13;;;25.00;50.65
1472;BME280;963;42.644;23.336;2022-08-19T00:43:20;93937.22;;;25.00;50.78
1472;BME280;963;42.644;23.336;2022-08-19T00:45:47;93936.47;;;24.99;50.84
1472;BME280;963;42.644;23.336;2022-08-19T00:48:13;93931.69;;;24.94;50.76
1472;BME280;963;42.644;23.336;2022-08-19T00:50:40;93938.72;;;24.91;51.34
1472;BME280;963;42.644;23.336;2022-08-19T00:53:12;93937.06;;;24.85;52.45
1472;BME280;963;42.644;23.336;2022-08-19T00:55:42;93938.88;;;24.79;52.47
1472;BME280;963;42.644;23.336;2022-08-19T00:58:12;93926.09;;;24.65;51.80
1472;BME280;963;42.644;23.336;2022-08-19T01:00:38;93924.59;;;24.63;51.13
1472;BME280;963;42.644;23.336;2022-08-19T01:03:10;93921.31;;;24.59;51.54
1472;BME280;963;42.644;23.336;2022-08-19T01:05:37;93938.03;;;24.63;51.48
1472;BME280;963;42.644;23.336;2022-08-19T01:08:05;93939.25;;;24.62;51.07
1472;BME280;963;42.644;23.336;2022-08-19T01:10:35;93936.72;;;24.59;52.18
1472;BME280;963;42.644;23.336;2022-08-19T01:13:03;93925.78;;;24.62;52.54
1472;BME280;963;42.644;23.336;2022-08-19T01:15:31;93943.41;;;24.63;52.80
1472;BME280;963;42.644;23.336;2022-08-19T01:18:02;93927.31;;;24.54;52.93
1472;BME280;963;42.644;23.336;2022-08-19T01:20:29;93932.81;;;24.60;53.07
1472;BME280;963;42.644;23.336;2022-08-19T01:22:57;93940.16;;;24.59;53.50
1472;BME280;963;42.644;23.336;2022-08-19T01:25:31;93926.09;;;24.55;53.62
1472;BME280;963;42.644;23.336;2022-08-19T01:27:57;93924.00;;;24.50;53.74
1472;BME280;963;42.644;23.336;2022-08-19T01:30:30;93919.09;;;24.40;54.07
1472;BME280;963;42.644;23.336;2022-08-19T01:32:56;93931.94;;;24.45;54.30
1472;BME280;963;42.644;23.336;2022-08-19T01:35:23;93920.75;;;24.37;54.34
1472;BME280;963;42.644;23.336;2022-08-19T01:38:00;93935.22;;;24.40;54.38
1472;BME280;963;42.644;23.336;2022-08-19T01:40:30;93938.06;;;24.36;54.51
1472;BME280;963;42.644;23.336;2022-08-19T01:42:56;93952.13;;;24.31;54.92
1472;BME280;963;42.644;23.336;2022-08-19T01:45:23;93942.28;;;24.28;54.58
1472;BME280;963;42.644;23.336;2022-08-19T01:47:49;93948.22;;;24.23;54.16
1472;BME280;963;42.644;23.336;2022-08-19T01:50:15;93942.56;;;24.21;54.15
1472;BME280;963;42.644;23.336;2022-08-19T01:52:41;93940.88;;;24.14;54.54
1472;BME280;963;42.644;23.336;2022-08-19T01:55:11;93933.44;;;24.09;54.34
1472;BME280;963;42.644;23.336;2022-08-19T01:57:37;93939.25;;;23.98;54.73
1472;BME280;963;42.644;23.336;2022-08-19T02:00:07;93931.78;;;23.93;54.58
1472;BME280;963;42.644;23.336;2022-08-19T02:02:33;93936.56;;;23.89;54.79
1472;BME280;963;42.644;23.336;2022-08-19T02:04:59;93935.22;;;23.85;55.00
1472;BME280;963;42.644;23.336;2022-08-19T02:07:24;93924.63;;;23.81;54.88
1472;BME280;963;42.644;23.336;2022-08-19T02:09:50;93929.84;;;23.85;55.08
1472;BME280;963;42.644;23.336;2022-08-19T02:12:15;93934.47;;;23.93;54.98
1472;BME280;963;42.644;23.336;2022-08-19T02:14:41;93926.72;;;23.95;55.50
1472;BME280;963;42.644;23.336;2022-08-19T02:17:07;93928.81;;;23.91;55.34
1472;BME280;963;42.644;23.336;2022-08-19T02:19:32;93938.22;;;23.96;55.41
1472;BME280;963;42.644;23.336;2022-08-19T02:21:59;93930.91;;;23.96;54.93
1472;BME280;963;42.644;23.336;2022-08-19T02:24:25;93925.66;;;23.93;55.38
1472;BME280;963;42.644;23.336;2022-08-19T02:26:51;93927.31;;;23.90;55.52
1472;BME280;963;42.644;23.336;2022-08-19T02:29:17;93940.91;;;23.87;55.83
1472;BME280;963;42.644;23.336;2022-08-19T02:31:42;93936.56;;;23.89;55.90
1472;BME280;963;42.644;23.336;2022-08-19T02:34:08;93936.72;;;23.86;55.95
1472;BME280;963;42.644;23.336;2022-08-19T02:36:33;93931.50;;;23.82;56.34
1472;BME280;963;42.644;23.336;2022-08-19T02:38:59;93952.97;;;23.82;56.98
1472;BME280;963;42.644;23.336;2022-08-19T02:41:28;93934.75;;;23.68;57.10
1472;BME280;963;42.644;23.336;2022-08-19T02:43:59;93928.88;;;23.51;57.57
1472;BME280;963;42.644;23.336;2022-08-19T02:46:28;93937.72;;;23.61;57.60
1472;BME280;963;42.644;23.336;2022-08-19T02:48:57;93950.69;;;23.62;57.57
1472;BME280;963;42.644;23.336;2022-08-19T02:51:29;93964.44;;;23.64;57.54
1472;BME280;963;42.644;23.336;2022-08-19T02:53:55;93947.28;;;23.62;57.65
1472;BME280;963;42.644;23.336;2022-08-19T02:56:22;93952.34;;;23.60;57.50
1472;BME280;963;42.644;23.336;2022-08-19T02:58:49;93951.09;;;23.52;57.96
1472;BME280;963;42.644;23.336;2022-08-19T03:01:25;93940.34;;;23.43;58.08
1472;BME280;963;42.644;23.336;2022-08-19T03:03:52;93960.34;;;23.51;58.33
1472;BME280;963;42.644;23.336;2022-08-19T03:06:19;93955.63;;;23.24;58.36
1472;BME280;963;42.644;23.336;2022-08-19T03:08:46;93964.97;;;23.10;58.68
1472;BME280;963;42.644;23.336;2022-08-19T03:11:13;93955.75;;;23.11;58.80
1472;BME280;963;42.644;23.336;2022-08-19T03:13:39;93947.28;;;22.91;58.88
1472;BME280;963;42.644;23.336;2022-08-19T03:16:05;93944.09;;;23.05;58.53
1472;BME280;963;42.644;23.336;2022-08-19T03:18:31;93948.28;;;23.06;58.33
1472;BME280;963;42.644;23.336;2022-08-19T03:20:56;93938.28;;;23.06;58.45
1472;BME280;963;42.644;23.336;2022-08-19T03:23:23;93930.03;;;23.01;57.89
1472;BME280;963;42.644;23.336;2022-08-19T03:25:50;93927.94;;;22.96;58.43
1472;BME280;963;42.644;23.336;2022-08-19T03:28:16;93936.28;;;22.98;57.96
1472;BME280;963;42.644;23.336;2022-08-19T03:30:44;93936.91;;;23.02;57.95
1472;BME280;963;42.644;23.336;2022-08-19T03:33:21;93945.84;;;22.99;57.84
1472;BME280;963;42.644;23.336;2022-08-19T03:35:47;93939.41;;;22.96;58.12
1472;BME280;963;42.644;23.336;2022-08-19T03:38:24;93940.16;;;22.97;58.61
1472;BME280;963;42.644;23.336;2022-08-19T03:40:49;93940.75;;;22.92;58.59
1472;BME280;963;42.644;23.336;2022-08-19T03:43:14;93946.09;;;22.92;58.66
1472;BME280;963;42.644;23.336;2022-08-19T03:45:42;93952.22;;;22.92;58.93
1472;BME280;963;42.644;23.336;2022-08-19T03:48:08;93950.59;;;22.95;59.42
1472;BME280;963;42.644;23.336;2022-08-19T03:50:39;93959.25;;;22.99;59.17
1472;BME280;963;42.644;23.336;2022-08-19T03:53:04;93962.25;;;23.01;59.05
1472;BME280;963;42.644;23.336;2022-08-19T03:55:29;93970.59;;;23.03;59.55
1472;BME280;963;42.644;23.336;2022-08-19T03:57:55;93971.22;;;23.07;59.15
1472;BME280;963;42.644;23.336;2022-08-19T04:00:21;93965.56;;;23.05;58.87
1472;BME280;963;42.644;23.336;2022-08-19T04:02:46;93979.00;;;23.14;58.84
1472;BME280;963;42.644;23.336;2022-08-19T04:05:12;93978.44;;;23.19;58.44
1472;BME280;963;42.644;23.336;2022-08-19T04:07:39;93978.75;;;23.21;57.74
1472;BME280;963;42.644;23.336;2022-08-19T04:10:05;93992.78;;;23.25;57.84
1472;BME280;963;42.644;23.336;2022-08-19T04:12:31;93974.56;;;23.20;57.70
1472;BME280;963;42.644;23.336;2022-08-19T04:14:57;93979.19;;;23.20;58.03
1472;BME280;963;42.644;23.336;2022-08-19T04:17:23;93978.44;;;23.19;57.57
1472;BME280;963;42.644;23.336;2022-08-19T04:19:49;93990.53;;;23.24;57.71
1472;BME280;963;42.644;23.336;2022-08-19T04:22:14;93995.75;;;23.27;57.72
1472;BME280;963;42.644;23.336;2022-08-19T04:24:39;93981.28;;;23.25;58.04
1472;BME280;963;42.644;23.336;2022-08-19T04:27:05;93987.41;;;23.25;57.36
1472;BME280;963;42.644;23.336;2022-08-19T04:29:31;93989.63;;;23.27;57.20
1472;BME280;963;42.644;23.336;2022-08-19T04:31:58;94003.22;;;23.32;57.65
1472;BME280;963;42.644;23.336;2022-08-19T04:34:25;93983.09;;;23.37;57.14
1472;BME280;963;42.644;23.336;2022-08-19T04:36:53;93991.34;;;23.43;57.64
1472;BME280;963;42.644;23.336;2022-08-19T04:39:25;93982.72;;;23.48;57.21
1472;BME280;963;42.644;23.336;2022-08-19T04:42:12;93977.34;;;23.48;57.90
1472;BME280;963;42.644;23.336;2022-08-19T04:44:56;93992.88;;;23.53;57.67
1472;BME280;963;42.644;23.336;2022-08-19T04:47:21;93992.56;;;23.51;57.70
1472;BME280;963;42.644;23.336;2022-08-19T04:49:47;93982.13;;;23.53;57.72
1472;BME280;963;42.644;23.336;2022-08-19T04:52:14;93972.59;;;23.52;58.15
1472;BME280;963;42.644;23.336;2022-08-19T04:54:39;93988.44;;;23.59;57.72
1472;BME280;963;42.644;23.336;2022-08-19T04:57:06;93986.66;;;23.65;57.57
1472;BME280;963;42.644;23.336;2022-08-19T04:59:35;93989.66;;;23.67;58.17
1472;BME280;963;42.644;23.336;2022-08-19T05:02:01;93988.63;;;23.74;57.61
1472;BME280;963;42.644;23.336;2022-08-19T05:04:26;93996.56;;;23.86;57.99
1472;BME280;963;42.644;23.336;2022-08-19T05:06:53;94003.72;;;23.89;57.45
1472;BME280;963;42.644;23.336;2022-08-19T05:09:19;93998.66;;;23.91;57.16
1472;BME280;963;42.644;23.336;2022-08-19T05:11:46;93999.25;;;23.95;57.51
1472;BME280;963;42.644;23.336;2022-08-19T05:14:11;93995.38;;;23.96;56.89
1472;BME280;963;42.644;23.336;2022-08-19T05:16:40;93991.50;;;23.97;56.71
1472;BME280;963;42.644;23.336;2022-08-19T05:19:06;94005.69;;;24.07;56.88
1472;BME280;963;42.644;23.336;2022-08-19T05:21:50;94000.75;;;24.15;56.77
1472;BME280;963;42.644;23.336;2022-08-19T05:24:44;93987.94;;;24.19;56.50
1472;BME280;963;42.644;23.336;2022-08-19T05:27:10;93985.25;;;24.19;55.95
1472;BME280;963;42.644;23.336;2022-08-19T05:29:35;93996.94;;;24.34;55.79
1472;BME280;963;42.644;23.336;2022-08-19T05:32:03;93996.19;;;24.43;55.63
1472;BME280;963;42.644;23.336;2022-08-19T05:34:31;93993.63;;;24.48;55.37
1472;BME280;963;42.644;23.336;2022-08-19T05:36:59;93997.53;;;24.56;55.36
1472;BME280;963;42.644;23.336;2022-08-19T05:39:27;94022.63;;;24.62;55.08
1472;BME280;963;42.644;23.336;2022-08-19T05:41:56;93998.41;;;24.62;55.17
1472;BME280;963;42.644;23.336;2022-08-19T05:44:27;94005.44;;;24.69;55.16
1472;BME280;963;42.644;23.336;2022-08-19T05:46:56;93995.09;;;24.77;55.03
1472;BME280;963;42.644;23.336;2022-08-19T05:49:23;94010.03;;;24.87;54.76
1472;BME280;963;42.644;23.336;2022-08-19T05:51:50;93991.19;;;24.87;54.02
1472;BME280;963;42.644;23.336;2022-08-19T05:54:17;94002.69;;;24.97;53.73
1472;BME280;963;42.644;23.336;2022-08-19T05:56:43;93987.47;;;24.93;52.97
1472;BME280;963;42.644;23.336;2022-08-19T05:59:10;93994.47;;;25.09;52.57
1472;BME280;963;42.644;23.336;2022-08-19T06:01:41;94008.78;;;25.15;52.33
1472;BME280;963;42.644;23.336;2022-08-19T06:04:07;93991.16;;;25.14;51.13
1472;BME280;963;42.644;23.336;2022-08-19T06:06:33;94001.28;;;25.29;50.88
1472;BME280;963;42.644;23.336;2022-08-19T06:09:04;94009.66;;;25.31;50.44
1472;BME280;963;42.644;23.336;2022-08-19T06:11:46;93996.94;;;25.31;50.60
1472;BME280;963;42.644;23.336;2022-08-19T06:14:17;94005.59;;;25.35;51.09
1472;BME280;963;42.644;23.336;2022-08-19T06:16:44;94005.56;;;25.44;50.76
1472;BME280;963;42.644;23.336;2022-08-19T06:19:12;93996.41;;;25.51;50.92
1472;BME280;963;42.644;23.336;2022-08-19T06:21:40;94005.34;;;25.57;51.29
1472;BME280;963;42.644;23.336;2022-08-19T06:24:09;94012.78;;;25.62;51.04
1472;BME280;963;42.644;23.336;2022-08-19T06:26:37;94011.59;;;25.72;51.10
1472;BME280;963;42.644;23.336;2022-08-19T06:29:06;94005.09;;;25.46;52.62
1472;BME280;963;42.644;23.336;2022-08-19T06:31:34;93996.06;;;25.58;52.10
1472;BME280;963;42.644;23.336;2022-08-19T06:34:01;94007.72;;;25.31;51.53
1472;BME280;963;42.644;23.336;2022-08-19T06:36:44;94012.34;;;25.21;52.68
1472;BME280;963;42.644;23.336;2022-08-19T06:39:15;94013.88;;;25.13;53.07
1472;BME280;963;42.644;23.336;2022-08-19T06:41:44;94021.59;;;25.39;52.96
1472;BME280;963;42.644;23.336;2022-08-19T06:44:11;94015.81;;;25.55;52.82
1472;BME280;963;42.644;23.336;2022-08-19T06:46:38;94006.25;;;25.54;52.20
1472;BME280;963;42.644;23.336;2022-08-19T06:49:04;94006.78;;;25.76;51.61
1472;BME280;963;42.644;23.336;2022-08-19T06:51:30;94006.44;;;25.83;51.43
1472;BME280;963;42.644;23.336;2022-08-19T06:53:57;94009.81;;;25.93;51.68
1472;BME280;963;42.644;23.336;2022-08-19T06:56:26;94008.72;;;26.00;50.57
1472;BME280;963;42.644;23.336;2022-08-19T06:59:00;94019.41;;;26.18;50.35
1472;BME280;963;42.644;23.336;2022-08-19T07:01:26;94020.63;;;26.17;49.97
1472;BME280;963;42.644;23.336;2022-08-19T07:03:51;94013.66;;;26.25;49.97
1472;BME280;963;42.644;23.336;2022-08-19T07:06:18;94020.81;;;26.28;49.95
1472;BME280;963;42.644;23.336;2022-08-19T07:08:46;94020.22;;;26.33;49.57
1472;BME280;963;42.644;23.336;2022-08-19T07:11:14;94019.53;;;26.47;49.51
1472;BME280;963;42.644;23.336;2022-08-19T07:13:41;94009.66;;;26.44;49.82
1472;BME280;963;42.644;23.336;2022-08-19T07:16:14;94021.00;;;26.48;50.33
1472;BME280;963;42.644;23.336;2022-08-19T07:18:40;94022.50;;;26.50;50.39
1472;BME280;963;42.644;23.336;2022-08-19T07:21:08;94027.75;;;26.68;49.98
1472;BME280;963;42.644;23.336;2022-08-19T07:23:34;94013.88;;;26.75;50.05
1472;BME280;963;42.644;23.336;2022-08-19T07:26:08;94020.59;;;26.79;49.65
1472;BME280;963;42.644;23.336;2022-08-19T07:28:34;94016.97;;;26.83;50.79
1472;BME280;963;42.644;23.336;2022-08-19T07:31:01;94022.19;;;26.86;50.49
1472;BME280;963;42.644;23.336;2022-08-19T07:33:28;94015.31;;;27.00;50.13
1472;BME280;963;42.644;23.336;2022-08-19T07:35:57;94020.00;;;27.14;49.65
1472;BME280;963;42.644;23.336;2022-08-19T07:38:22;94017.09;;;27.18;49.57
1472;BME280;963;42.644;23.336;2022-08-19T07:40:48;94001.16;;;27.05;49.17
1472;BME280;963;42.644;23.336;2022-08-19T07:43:14;94011.03;;;27.23;49.86
1472;BME280;963;42.644;23.336;2022-08-19T07:45:40;94016.56;;;27.14;50.18
1472;BME280;963;42.644;23.336;2022-08-19T07:48:05;94018.88;;;27.21;49.24
1472;BME280;963;42.644;23.336;2022-08-19T07:50:31;94018.66;;;27.39;49.08
1472;BME280;963;42.644;23.336;2022-08-19T07:52:56;94023.94;;;27.48;49.00
1472;BME280;963;42.644;23.336;2022-08-19T07:55:25;94025.34;;;27.58;48.53
1472;BME280;963;42.644;23.336;2022-08-19T07:57:50;94022.53;;;27.67;48.45
1472;BME280;963;42.644;23.336;2022-08-19T08:00:17;94015.38;;;27.64;48.28
1472;BME280;963;42.644;23.336;2022-08-19T08:02:43;94014.84;;;27.81;48.19
1472;BME280;963;42.644;23.336;2022-08-19T08:05:09;93997.91;;;27.80;47.79
1472;BME280;963;42.644;23.336;2022-08-19T08:07:53;94016.44;;;28.08;47.62
1472;BME280;963;42.644;23.336;2022-08-19T08:10:38;94005.91;;;28.10;46.73
1472;BME280;963;42.644;23.336;2022-08-19T08:13:03;94022.66;;;28.14;46.88
1472;BME280;963;42.644;23.336;2022-08-19T08:15:31;94002.03;;;28.16;47.40
1472;BME280;963;42.644;23.336;2022-08-19T08:17:56;94006.22;;;28.32;46.54
1472;BME280;963;42.644;23.336;2022-08-19T08:20:23;94001.94;;;28.46;45.87
1472;BME280;963;42.644;23.336;2022-08-19T08:22:48;94002.03;;;28.57;46.93
1472;BME280;963;42.644;23.336;2022-08-19T08:25:33;94004.66;;;28.72;45.76
1472;BME280;963;42.644;23.336;2022-08-19T08:28:01;94006.72;;;28.82;44.70
1472;BME280;963;42.644;23.336;2022-08-19T08:30:29;93993.47;;;28.84;43.62
1472;BME280;963;42.644;23.336;2022-08-19T08:32:55;93985.66;;;28.92;44.08
1472;BME280;963;42.644;23.336;2022-08-19T08:35:22;93991.22;;;29.03;44.55
1472;BME280;963;42.644;23.336;2022-08-19T08:37:50;93985.94;;;28.94;43.83
1472;BME280;963;42.644;23.336;2022-08-19T08:42:48;93985.47;;;29.27;42.86
1472;BME280;963;42.644;23.336;2022-08-19T08:45:17;93991.38;;;29.25;42.86
1472;BME280;963;42.644;23.336;2022-08-19T08:47:47;93984.81;;;29.38;42.35
1472;BME280;963;42.644;23.336;2022-08-19T08:50:19;93983.22;;;29.51;42.11
1472;BME280;963;42.644;23.336;2022-08-19T08:52:48;93976.81;;;29.54;40.73
1472;BME280;963;42.644;23.336;2022-08-19T08:55:19;93978.84;;;29.65;38.14
1472;BME280;963;42.644;23.336;2022-08-19T09:00:23;93977.47;;;29.81;39.47
1472;BME280;963;42.644;23.336;2022-08-19T09:02:52;93981.19;;;29.83;38.59
1472;BME280;963;42.644;23.336;2022-08-19T09:05:19;93974.09;;;29.97;38.84
1472;BME280;963;42.644;23.336;2022-08-19T09:15:44;93970.31;;;30.32;38.50
1472;BME280;963;42.644;23.336;2022-08-19T09:18:11;93968.84;;;30.42;38.42
1472;BME280;963;42.644;23.336;2022-08-19T09:20:36;93968.41;;;30.49;37.99
1472;BME280;963;42.644;23.336;2022-08-19T09:23:02;93969.88;;;30.50;37.05
1472;BME280;963;42.644;23.336;2022-08-19T09:25:28;93962.41;;;30.34;37.27
1472;BME280;963;42.644;23.336;2022-08-19T09:27:56;93953.06;;;30.46;36.07
1472;BME280;963;42.644;23.336;2022-08-19T09:30:26;93949.41;;;30.55;35.65
1472;BME280;963;42.644;23.336;2022-08-19T09:32:53;93959.31;;;30.63;35.81
1472;BME280;963;42.644;23.336;2022-08-19T09:35:23;93951.09;;;30.41;35.68
1472;BME280;963;42.644;23.336;2022-08-19T09:37:49;93949.41;;;30.55;35.79
1472;BME280;963;42.644;23.336;2022-08-19T09:40:16;93950.19;;;30.66;35.76
1472;BME280;963;42.644;23.336;2022-08-19T09:42:43;93938.34;;;30.69;35.23
1472;BME280;963;42.644;23.336;2022-08-19T09:45:11;93946.03;;;30.88;35.35
1472;BME280;963;42.644;23.336;2022-08-19T09:47:37;93935.41;;;31.01;35.83
1472;BME280;963;42.644;23.336;2022-08-19T09:50:05;93941.81;;;31.15;34.86
1472;BME280;963;42.644;23.336;2022-08-19T09:52:31;93948.53;;;31.25;34.86
1472;BME280;963;42.644;23.336;2022-08-19T09:54:56;93944.31;;;31.35;33.99
1472;BME280;963;42.644;23.336;2022-08-19T09:57:22;93942.56;;;31.43;34.02
1472;BME280;963;42.644;23.336;2022-08-19T09:59:47;93937.84;;;31.55;33.42
1472;BME280;963;42.644;23.336;2022-08-19T10:02:13;93933.88;;;31.67;33.11
1472;BME280;963;42.644;23.336;2022-08-19T10:04:39;93923.22;;;31.75;32.59
1472;BME280;963;42.644;23.336;2022-08-19T10:07:23;93922.44;;;31.85;32.68
1472;BME280;963;42.644;23.336;2022-08-19T10:09:48;93918.47;;;31.97;32.44
1472;BME280;963;42.644;23.336;2022-08-19T10:12:13;93917.94;;;32.05;32.61
1472;BME280;963;42.644;23.336;2022-08-19T10:14:40;93899.88;;;32.01;32.30
1472;BME280;963;42.644;23.336;2022-08-19T10:17:06;93914.81;;;31.78;32.32
1472;BME280;963;42.644;23.336;2022-08-19T10:19:31;93913.22;;;32.05;32.85
1472;BME280;963;42.644;23.336;2022-08-19T10:22:04;93905.75;;;32.17;33.01
1472;BME280;963;42.644;23.336;2022-08-19T10:24:30;93899.75;;;32.29;32.49
1472;BME280;963;42.644;23.336;2022-08-19T10:26:56;93908.31;;;32.50;32.61
1472;BME280;963;42.644;23.336;2022-08-19T10:29:22;93902.50;;;32.65;32.38
1472;BME280;963;42.644;23.336;2022-08-19T10:31:48;93918.06;;;32.76;32.14
1472;BME280;963;42.644;23.336;2022-08-19T10:34:13;93900.38;;;32.88;32.29
1472;BME280;963;42.644;23.336;2022-08-19T10:36:39;93898.06;;;32.98;31.76
1472;BME280;963;42.644;23.336;2022-08-19T10:39:07;93897.94;;;33.14;31.59
1472;BME280;963;42.644;23.336;2022-08-19T10:41:35;93899.81;;;33.25;30.79
1472;BME280;963;42.644;23.336;2022-08-19T10:44:04;93888.09;;;33.36;31.23
1472;BME280;963;42.644;23.336;2022-08-19T10:46:31;93892.41;;;33.50;30.97
1472;BME280;963;42.644;23.336;2022-08-19T10:48:58;93889.13;;;33.57;30.62
1472;BME280;963;42.644;23.336;2022-08-19T10:51:24;93894.44;;;33.68;30.75
1472;BME280;963;42.644;23.336;2022-08-19T10:54:08;93887.88;;;33.82;30.32
1472;BME280;963;42.644;23.336;2022-08-19T10:56:34;93879.91;;;33.79;30.05
1472;BME280;963;42.644;23.336;2022-08-19T10:59:23;93897.16;;;33.93;29.98
1472;BME280;963;42.644;23.336;2022-08-19T11:01:50;93894.00;;;33.89;29.98
1472;BME280;963;42.644;23.336;2022-08-19T11:04:17;93877.69;;;33.83;30.07
1472;BME280;963;42.644;23.336;2022-08-19T11:06:47;93883.38;;;34.04;30.07
1472;BME280;963;42.644;23.336;2022-08-19T11:09:15;93873.56;;;34.14;30.18
1472;BME280;963;42.644;23.336;2022-08-19T11:11:42;93871.81;;;34.35;29.88
1472;BME280;963;42.644;23.336;2022-08-19T11:14:10;93892.31;;;34.61;29.96
1472;BME280;963;42.644;23.336;2022-08-19T11:16:36;93879.31;;;34.67;29.41
1472;BME280;963;42.644;23.336;2022-08-19T11:19:04;93874.75;;;34.37;29.38
1472;BME280;963;42.644;23.336;2022-08-19T11:21:35;93885.75;;;34.51;29.59
1472;BME280;963;42.644;23.336;2022-08-19T11:24:03;93875.03;;;34.53;30.46
1472;BME280;963;42.644;23.336;2022-08-19T11:26:30;93872.69;;;34.75;29.84
1472;BME280;963;42.644;23.336;2022-08-19T11:28:56;93869.19;;;34.94;29.35
1472;BME280;963;42.644;23.336;2022-08-19T11:31:25;93871.25;;;35.06;29.49
1472;BME280;963;42.644;23.336;2022-08-19T11:33:51;93865.44;;;34.97;28.96
1472;BME280;963;42.644;23.336;2022-08-19T11:36:19;93867.66;;;35.12;29.61
1472;BME280;963;42.644;23.336;2022-08-19T11:38:47;93857.53;;;35.38;29.59
1472;BME280;963;42.644;23.336;2022-08-19T11:41:15;93862.03;;;35.36;29.23
1472;BME280;963;42.644;23.336;2022-08-19T11:43:41;93850.41;;;35.30;28.78
1472;BME280;963;42.644;23.336;2022-08-19T11:46:09;93854.47;;;35.42;29.28
1472;BME280;963;42.644;23.336;2022-08-19T11:48:36;93853.94;;;35.70;28.92
1472;BME280;963;42.644;23.336;2022-08-19T11:51:09;93851.28;;;35.91;28.92
1472;BME280;963;42.644;23.336;2022-08-19T11:53:35;93853.03;;;36.15;28.35
1472;BME280;963;42.644;23.336;2022-08-19T11:56:01;93841.72;;;36.31;28.60
1472;BME280;963;42.644;23.336;2022-08-19T11:58:26;93844.00;;;36.41;27.84
1472;BME280;963;42.644;23.336;2022-08-19T12:00:52;93835.94;;;36.56;28.07
1472;BME280;963;42.644;23.336;2022-08-19T12:03:18;93844.44;;;36.66;27.95
1472;BME280;963;42.644;23.336;2022-08-19T12:05:45;93835.66;;;36.80;27.55
1472;BME280;963;42.644;23.336;2022-08-19T12:08:10;93836.69;;;36.98;27.99
1472;BME280;963;42.644;23.336;2022-08-19T12:10:38;93830.44;;;37.18;27.83
1472;BME280;963;42.644;23.336;2022-08-19T12:13:04;93825.22;;;37.28;27.50
1472;BME280;963;42.644;23.336;2022-08-19T12:15:30;93831.84;;;37.33;26.96
1472;BME280;963;42.644;23.336;2022-08-19T12:17:56;93835.06;;;37.23;27.13
1472;BME280;963;42.644;23.336;2022-08-19T12:20:23;93809.91;;;37.40;27.36
1472;BME280;963;42.644;23.336;2022-08-19T12:22:49;93827.16;;;37.48;27.10
1472;BME280;963;42.644;23.336;2022-08-19T12:25:14;93806.97;;;37.38;27.11
1472;BME280;963;42.644;23.336;2022-08-19T12:27:40;93812.16;;;36.92;27.70
1472;BME280;963;42.644;23.336;2022-08-19T12:30:08;93810.69;;;37.20;26.99
1472;BME280;963;42.644;23.336;2022-08-19T12:32:34;93797.09;;;37.35;27.14
1472;BME280;963;42.644;23.336;2022-08-19T12:35:00;93806.47;;;37.47;27.67
1472;BME280;963;42.644;23.336;2022-08-19T12:37:26;93806.28;;;37.45;27.29
1472;BME280;963;42.644;23.336;2022-08-19T12:39:53;93803.63;;;36.41;27.86
1472;BME280;963;42.644;23.336;2022-08-19T12:42:19;93807.59;;;36.95;26.93
1472;BME280;963;42.644;23.336;2022-08-19T12:44:47;93800.69;;;37.02;27.27
1472;BME280;963;42.644;23.336;2022-08-19T12:47:12;93792.56;;;37.17;27.20
1472;BME280;963;42.644;23.336;2022-08-19T12:49:42;93788.13;;;37.14;27.39
1472;BME280;963;42.644;23.336;2022-08-19T12:52:09;93782.56;;;37.55;27.29
1472;BME280;963;42.644;23.336;2022-08-19T12:54:36;93779.88;;;37.06;27.88
1472;BME280;963;42.644;23.336;2022-08-19T12:57:10;93805.63;;;37.24;27.28
1472;BME280;963;42.644;23.336;2022-08-19T12:59:36;93784.44;;;37.68;27.49
1472;BME280;963;42.644;23.336;2022-08-19T13:02:06;93788.19;;;37.86;26.75
1472;BME280;963;42.644;23.336;2022-08-19T13:04:33;93781.38;;;37.79;27.03
1472;BME280;963;42.644;23.336;2022-08-19T13:07:06;93778.38;;;38.13;26.86
1472;BME280;963;42.644;23.336;2022-08-19T13:09:33;93780.19;;;38.03;26.18
1472;BME280;963;42.644;23.336;2022-08-19T13:11:58;93780.97;;;38.27;26.04
1472;BME280;963;42.644;23.336;2022-08-19T13:14:27;93790.00;;;38.35;26.10
1472;BME280;963;42.644;23.336;2022-08-19T13:16:55;93773.69;;;38.37;25.88
1472;BME280;963;42.644;23.336;2022-08-19T13:19:21;93787.22;;;38.20;25.82
1472;BME280;963;42.644;23.336;2022-08-19T13:21:51;93770.38;;;37.36;26.68
1472;BME280;963;42.644;23.336;2022-08-19T13:24:18;93775.59;;;37.54;26.35
1472;BME280;963;42.644;23.336;2022-08-19T13:26:43;93771.25;;;37.67;26.75
1472;BME280;963;42.644;23.336;2022-08-19T13:29:08;93768.94;;;37.42;27.02
1472;BME280;963;42.644;23.336;2022-08-19T13:31:52;93783.41;;;37.86;26.42
1472;BME280;963;42.644;23.336;2022-08-19T13:34:36;93760.81;;;38.16;25.82
1472;BME280;963;42.644;23.336;2022-08-19T13:37:03;93762.41;;;37.97;26.02
1472;BME280;963;42.644;23.336;2022-08-19T13:39:30;93762.78;;;37.93;25.99